sensor_id;sensor_type;location;lat;lon;timestamp;pressure;altitude;pressure_sealevel;temperature;humidity
78229;BME280;67502;49.142;9.124;2023-03-14T08:25:53;97605.34;;;15.79;44.75
78229;BME280;67502;49.142;9.124;2023-03-14T08:28:20;97623.59;;;14.52;47.59
78229;BME280;67502;49.142;9.124;2023-03-14T08:30:46;97612.81;;;14.15;48.92
78229;BME280;67502;49.142;9.124;2023-03-14T08:33:13;97634.81;;;13.49;49.92
78229;BME280;67502;49.142;9.124;2023-03-14T08:35:40;97611.34;;;15.23;46.42
78229;BME280;67502;49.142;9.124;2023-03-14T08:38:06;97617.25;;;15.40;46.31
78229;BME280;67502;49.142;9.124;2023-03-14T08:40:33;97626.75;;;15.28;44.87
78229;BME280;67502;49.142;9.124;2023-03-14T08:42:59;97622.38;;;15.20;45.70
78229;BME280;67502;49.142;9.124;2023-03-14T08:45:26;97625.56;;;14.79;48.23
78229;BME280;67502;49.142;9.124;2023-03-14T08:47:53;97638.16;;;14.70;49.65
78229;BME280;67502;49.142;9.124;2023-03-14T08:50:19;97635.28;;;14.13;52.43
78229;BME280;67502;49.142;9.124;2023-03-14T08:52:46;97639.00;;;13.66;53.10
78229;BME280;67502;49.142;9.124;2023-03-14T08:55:12;97639.94;;;13.50;53.86
78229;BME280;67502;49.142;9.124;2023-03-14T08:57:39;97643.06;;;13.00;53.64
78229;BME280;67502;49.142;9.124;2023-03-14T09:00:05;97651.25;;;12.90;55.13
78229;BME280;67502;49.142;9.124;2023-03-14T09:02:37;97654.72;;;12.90;55.08
78229;BME280;67502;49.142;9.124;2023-03-14T09:05:04;97666.13;;;12.60;56.36
78229;BME280;67502;49.142;9.124;2023-03-14T09:07:31;97683.72;;;12.28;58.51
78229;BME280;67502;49.142;9.124;2023-03-14T09:09:57;97675.13;;;12.34;59.48
78229;BME280;67502;49.142;9.124;2023-03-14T09:12:24;97693.88;;;12.16;59.30
78229;BME280;67502;49.142;9.124;2023-03-14T09:14:50;97696.31;;;11.69;61.60
78229;BME280;67502;49.142;9.124;2023-03-14T09:17:17;97674.31;;;11.52;61.71
78229;BME280;67502;49.142;9.124;2023-03-14T09:19:43;97680.41;;;11.44;60.69
78229;BME280;67502;49.142;9.124;2023-03-14T09:22:09;97705.91;;;11.62;61.49
78229;BME280;67502;49.142;9.124;2023-03-14T09:24:36;97690.69;;;11.47;60.63
78229;BME280;67502;49.142;9.124;2023-03-14T09:27:02;97685.72;;;11.61;60.32
78229;BME280;67502;49.142;9.124;2023-03-14T09:29:29;97691.03;;;11.69;60.65
78229;BME280;67502;49.142;9.124;2023-03-14T09:31:58;97690.69;;;11.56;58.88
78229;BME280;67502;49.142;9.124;2023-03-14T09:34:26;97676.16;;;11.76;58.26
78229;BME280;67502;49.142;9.124;2023-03-14T09:36:52;97663.22;;;11.65;57.80
78229;BME280;67502;49.142;9.124;2023-03-14T09:39:19;97673.22;;;11.95;59.07
78229;BME280;67502;49.142;9.124;2023-03-14T09:41:47;97684.75;;;11.94;57.17
78229;BME280;67502;49.142;9.124;2023-03-14T09:44:22;97683.28;;;11.84;58.96
78229;BME280;67502;49.142;9.124;2023-03-14T09:46:53;97690.75;;;11.96;59.35
78229;BME280;67502;49.142;9.124;2023-03-14T09:49:28;97702.66;;;12.17;59.28
78229;BME280;67502;49.142;9.124;2023-03-14T09:51:56;97685.13;;;11.91;59.01
78229;BME280;67502;49.142;9.124;2023-03-14T09:54:40;97685.94;;;11.84;58.96
78229;BME280;67502;49.142;9.124;2023-03-14T09:57:15;97703.97;;;12.21;56.99
78229;BME280;67502;49.142;9.124;2023-03-14T09:59:46;97677.13;;;12.24;56.44
78229;BME280;67502;49.142;9.124;2023-03-14T10:02:19;97675.91;;;12.51;55.77
78229;BME280;67502;49.142;9.124;2023-03-14T10:04:47;97675.03;;;12.67;55.40
78229;BME280;67502;49.142;9.124;2023-03-14T10:07:20;97681.09;;;12.84;55.86
78229;BME280;67502;49.142;9.124;2023-03-14T10:09:50;97685.78;;;13.13;55.88
78229;BME280;67502;49.142;9.124;2023-03-14T10:12:18;97686.72;;;13.28;53.17
78229;BME280;67502;49.142;9.124;2023-03-14T10:14:51;97677.94;;;12.88;54.71
78229;BME280;67502;49.142;9.124;2023-03-14T10:17:19;97686.31;;;12.61;55.59
78229;BME280;67502;49.142;9.124;2023-03-14T10:19:57;97689.84;;;12.37;56.04
78229;BME280;67502;49.142;9.124;2023-03-14T10:22:27;97692.94;;;12.57;56.80
78229;BME280;67502;49.142;9.124;2023-03-14T10:24:57;97684.75;;;12.27;56.56
78229;BME280;67502;49.142;9.124;2023-03-14T10:27:32;97691.81;;;12.51;56.69
78229;BME280;67502;49.142;9.124;2023-03-14T10:30:01;97690.06;;;13.14;55.33
78229;BME280;67502;49.142;9.124;2023-03-14T10:32:34;97696.78;;;13.02;55.35
78229;BME280;67502;49.142;9.124;2023-03-14T10:35:18;97716.13;;;12.63;56.52
78229;BME280;67502;49.142;9.124;2023-03-14T10:37:56;97716.22;;;12.86;56.45
78229;BME280;67502;49.142;9.124;2023-03-14T10:40:28;97711.72;;;12.94;56.12
78229;BME280;67502;49.142;9.124;2023-03-14T10:42:58;97720.81;;;13.00;56.19
78229;BME280;67502;49.142;9.124;2023-03-14T10:48:15;97702.59;;;13.36;55.53
78229;BME280;67502;49.142;9.124;2023-03-14T10:50:57;97719.72;;;12.78;56.97
78229;BME280;67502;49.142;9.124;2023-03-14T10:53:25;97693.94;;;12.56;57.47
78229;BME280;67502;49.142;9.124;2023-03-14T10:55:55;97712.00;;;12.60;57.41
78229;BME280;67502;49.142;9.124;2023-03-14T10:58:27;97719.91;;;12.68;58.57
78229;BME280;67502;49.142;9.124;2023-03-14T11:06:42;97698.81;;;11.95;58.81
78229;BME280;67502;49.142;9.124;2023-03-14T11:09:20;97714.56;;;12.13;57.84
78229;BME280;67502;49.142;9.124;2023-03-14T11:11:49;97713.56;;;12.14;57.70
78229;BME280;67502;49.142;9.124;2023-03-14T11:16:52;97722.16;;;11.75;60.19
78229;BME280;67502;49.142;9.124;2023-03-14T11:19:34;97727.44;;;11.75;61.48
78229;BME280;67502;49.142;9.124;2023-03-14T11:27:44;97721.69;;;11.88;61.49
78229;BME280;67502;49.142;9.124;2023-03-14T11:30:21;97723.00;;;11.92;62.22
78229;BME280;67502;49.142;9.124;2023-03-14T11:33:12;97727.44;;;11.67;62.46
78229;BME280;67502;49.142;9.124;2023-03-14T11:40:57;97737.47;;;10.96;64.59
78229;BME280;67502;49.142;9.124;2023-03-14T11:43:34;97730.91;;;10.66;66.73
78229;BME280;67502;49.142;9.124;2023-03-14T11:46:13;97735.66;;;10.63;68.19
78229;BME280;67502;49.142;9.124;2023-03-14T11:48:45;97741.13;;;10.69;68.37
78229;BME280;67502;49.142;9.124;2023-03-14T11:51:36;97742.38;;;10.83;68.65
78229;BME280;67502;49.142;9.124;2023-03-14T11:54:08;97746.63;;;10.76;67.26
78229;BME280;67502;49.142;9.124;2023-03-14T11:56:51;97727.91;;;10.95;67.05
78229;BME280;67502;49.142;9.124;2023-03-14T11:59:33;97768.88;;;11.00;66.72
78229;BME280;67502;49.142;9.124;2023-03-14T12:07:43;97759.00;;;10.76;67.30
78229;BME280;67502;49.142;9.124;2023-03-14T12:10:18;97771.59;;;10.56;68.87
78229;BME280;67502;49.142;9.124;2023-03-14T12:12:47;97769.66;;;10.58;68.38
78229;BME280;67502;49.142;9.124;2023-03-14T12:15:21;97779.22;;;10.59;68.04
78229;BME280;67502;49.142;9.124;2023-03-14T12:17:54;97798.84;;;10.56;67.78
78229;BME280;67502;49.142;9.124;2023-03-14T12:20:25;97777.31;;;10.43;67.72
78229;BME280;67502;49.142;9.124;2023-03-14T12:22:55;97809.97;;;10.24;67.08
78229;BME280;67502;49.142;9.124;2023-03-14T12:25:26;97816.94;;;10.25;67.43
78229;BME280;67502;49.142;9.124;2023-03-14T12:35:37;97880.88;;;9.18;67.84
78229;BME280;67502;49.142;9.124;2023-03-14T12:38:18;97890.94;;;8.95;67.71
78229;BME280;67502;49.142;9.124;2023-03-14T12:41:00;97904.78;;;8.97;67.61
78229;BME280;67502;49.142;9.124;2023-03-14T12:43:32;97906.22;;;8.82;66.92
78229;BME280;67502;49.142;9.124;2023-03-14T12:46:24;97931.47;;;8.75;66.50
78229;BME280;67502;49.142;9.124;2023-03-14T12:49:03;97913.81;;;8.85;65.41
78229;BME280;67502;49.142;9.124;2023-03-14T12:51:43;97942.09;;;8.93;65.70
78229;BME280;67502;49.142;9.124;2023-03-14T12:54:22;97953.09;;;8.79;65.30
78229;BME280;67502;49.142;9.124;2023-03-14T12:57:32;97945.03;;;8.80;64.47
78229;BME280;67502;49.142;9.124;2023-03-14T13:00:29;97932.97;;;8.87;63.69
78229;BME280;67502;49.142;9.124;2023-03-14T13:02:50;97980.66;;;8.84;63.47
78229;BME280;67502;49.142;9.124;2023-03-14T13:05:24;97979.69;;;8.85;63.22
78229;BME280;67502;49.142;9.124;2023-03-14T13:10:28;98001.63;;;8.95;62.34
78229;BME280;67502;49.142;9.124;2023-03-14T13:13:24;98016.31;;;8.88;61.43
78229;BME280;67502;49.142;9.124;2023-03-14T13:15:56;98008.53;;;8.96;60.68
78229;BME280;67502;49.142;9.124;2023-03-14T13:18:38;98030.72;;;8.94;61.02
78229;BME280;67502;49.142;9.124;2023-03-14T13:21:15;98049.16;;;8.94;61.13
78229;BME280;67502;49.142;9.124;2023-03-14T13:24:05;98050.16;;;8.93;60.68
78229;BME280;67502;49.142;9.124;2023-03-14T13:26:40;98052.78;;;9.03;60.55
78229;BME280;67502;49.142;9.124;2023-03-14T13:29:29;98080.38;;;9.18;60.27
78229;BME280;67502;49.142;9.124;2023-03-14T13:32:02;98059.56;;;9.15;59.88
78229;BME280;67502;49.142;9.124;2023-03-14T13:34:33;98074.84;;;9.21;58.33
78229;BME280;67502;49.142;9.124;2023-03-14T13:37:21;98043.75;;;9.15;55.88
78229;BME280;67502;49.142;9.124;2023-03-14T13:39:49;98100.78;;;9.35;52.88
78229;BME280;67502;49.142;9.124;2023-03-14T13:42:17;98079.41;;;9.38;52.36
78229;BME280;67502;49.142;9.124;2023-03-14T13:44:52;98102.56;;;9.44;50.67
78229;BME280;67502;49.142;9.124;2023-03-14T13:47:22;98098.41;;;9.52;48.52
78229;BME280;67502;49.142;9.124;2023-03-14T13:49:54;98085.34;;;9.40;47.93
78229;BME280;67502;49.142;9.124;2023-03-14T13:52:36;98122.53;;;10.23;47.62
78229;BME280;67502;49.142;9.124;2023-03-14T13:55:16;98140.81;;;10.44;45.30
78229;BME280;67502;49.142;9.124;2023-03-14T13:57:53;98159.31;;;10.44;45.13
78229;BME280;67502;49.142;9.124;2023-03-14T14:00:26;98168.66;;;10.38;45.98
78229;BME280;67502;49.142;9.124;2023-03-14T14:02:54;98150.94;;;10.58;43.71
78229;BME280;67502;49.142;9.124;2023-03-14T14:05:23;98174.22;;;11.00;41.32
78229;BME280;67502;49.142;9.124;2023-03-14T14:07:51;98153.91;;;10.73;41.21
78229;BME280;67502;49.142;9.124;2023-03-14T14:10:19;98175.16;;;10.54;41.63
78229;BME280;67502;49.142;9.124;2023-03-14T14:12:55;98196.63;;;10.31;42.53
78229;BME280;67502;49.142;9.124;2023-03-14T14:15:29;98198.88;;;10.26;42.04
78229;BME280;67502;49.142;9.124;2023-03-14T14:18:08;98219.97;;;10.07;43.59
78229;BME280;67502;49.142;9.124;2023-03-14T14:20:40;98202.94;;;9.72;43.13
78229;BME280;67502;49.142;9.124;2023-03-14T14:23:11;98237.50;;;9.69;44.07
78229;BME280;67502;49.142;9.124;2023-03-14T14:25:38;98242.38;;;9.64;44.35
78229;BME280;67502;49.142;9.124;2023-03-14T14:28:35;98248.22;;;9.58;43.62
78229;BME280;67502;49.142;9.124;2023-03-14T14:33:39;98256.09;;;9.48;44.21
78229;BME280;67502;49.142;9.124;2023-03-14T14:36:32;98262.75;;;9.52;44.89
78229;BME280;67502;49.142;9.124;2023-03-14T14:39:17;98259.44;;;9.50;43.85
78229;BME280;67502;49.142;9.124;2023-03-14T14:41:50;98267.66;;;9.66;43.85
78229;BME280;67502;49.142;9.124;2023-03-14T14:44:21;98280.59;;;9.79;42.16
78229;BME280;67502;49.142;9.124;2023-03-14T14:46:55;98281.69;;;9.67;42.24
78229;BME280;67502;49.142;9.124;2023-03-14T14:49:28;98302.78;;;9.67;42.44
78229;BME280;67502;49.142;9.124;2023-03-14T14:52:02;98295.41;;;9.61;42.40
78229;BME280;67502;49.142;9.124;2023-03-14T14:54:51;98300.16;;;9.77;41.20
78229;BME280;67502;49.142;9.124;2023-03-14T14:57:39;98308.91;;;9.77;41.83
78229;BME280;67502;49.142;9.124;2023-03-14T15:00:25;98301.13;;;9.85;41.27
78229;BME280;67502;49.142;9.124;2023-03-14T15:03:12;98303.66;;;9.87;41.05
78229;BME280;67502;49.142;9.124;2023-03-14T15:05:54;98321.41;;;9.94;40.92
78229;BME280;67502;49.142;9.124;2023-03-14T15:08:38;98337.53;;;9.91;41.54
78229;BME280;67502;49.142;9.124;2023-03-14T15:11:22;98278.31;;;9.55;41.72
78229;BME280;67502;49.142;9.124;2023-03-14T15:14:03;98339.63;;;9.78;41.52
78229;BME280;67502;49.142;9.124;2023-03-14T15:16:31;98308.19;;;9.56;41.84
78229;BME280;67502;49.142;9.124;2023-03-14T15:19:00;98290.69;;;9.55;39.99
78229;BME280;67502;49.142;9.124;2023-03-14T15:21:53;98344.59;;;9.62;40.76
78229;BME280;67502;49.142;9.124;2023-03-14T15:24:22;98316.59;;;9.40;41.71
78229;BME280;67502;49.142;9.124;2023-03-14T15:26:51;98346.66;;;9.58;40.79
78229;BME280;67502;49.142;9.124;2023-03-14T15:29:27;98357.19;;;9.58;41.52
78229;BME280;67502;49.142;9.124;2023-03-14T15:31:58;98365.13;;;9.68;41.04
78229;BME280;67502;49.142;9.124;2023-03-14T15:34:29;98352.34;;;9.63;41.10
78229;BME280;67502;49.142;9.124;2023-03-14T15:36:58;98361.09;;;9.64;41.29
78229;BME280;67502;49.142;9.124;2023-03-14T15:39:34;98349.53;;;9.45;42.29
78229;BME280;67502;49.142;9.124;2023-03-14T15:42:05;98356.03;;;9.41;41.97
78229;BME280;67502;49.142;9.124;2023-03-14T15:44:32;98354.66;;;9.37;42.00
78229;BME280;67502;49.142;9.124;2023-03-14T15:47:04;98365.19;;;9.37;40.87
78229;BME280;67502;49.142;9.124;2023-03-14T15:49:45;98318.41;;;8.99;41.27
78229;BME280;67502;49.142;9.124;2023-03-14T15:52:16;98368.72;;;9.17;41.63
78229;BME280;67502;49.142;9.124;2023-03-14T15:54:48;98377.06;;;9.22;41.85
78229;BME280;67502;49.142;9.124;2023-03-14T15:57:15;98387.59;;;9.22;42.28
78229;BME280;67502;49.142;9.124;2023-03-14T15:59:42;98358.91;;;8.98;42.42
78229;BME280;67502;49.142;9.124;2023-03-14T16:02:11;98350.25;;;8.86;43.15
78229;BME280;67502;49.142;9.124;2023-03-14T16:04:48;98386.25;;;9.07;43.52
78229;BME280;67502;49.142;9.124;2023-03-14T16:07:17;98367.63;;;8.98;43.34
78229;BME280;67502;49.142;9.124;2023-03-14T16:09:43;98395.94;;;8.96;43.57
78229;BME280;67502;49.142;9.124;2023-03-14T16:12:10;98401.03;;;8.88;43.54
78229;BME280;67502;49.142;9.124;2023-03-14T16:14:36;98390.94;;;8.72;44.46
78229;BME280;67502;49.142;9.124;2023-03-14T16:17:08;98399.09;;;8.48;44.73
78229;BME280;67502;49.142;9.124;2023-03-14T16:19:46;98372.81;;;8.26;45.55
78229;BME280;67502;49.142;9.124;2023-03-14T16:22:18;98372.50;;;8.19;46.31
78229;BME280;67502;49.142;9.124;2023-03-14T16:24:46;98418.84;;;8.32;46.22
78229;BME280;67502;49.142;9.124;2023-03-14T16:27:17;98403.22;;;8.19;46.47
78229;BME280;67502;49.142;9.124;2023-03-14T16:29:48;98431.91;;;8.33;46.53
78229;BME280;67502;49.142;9.124;2023-03-14T16:32:26;98390.00;;;7.98;47.12
78229;BME280;67502;49.142;9.124;2023-03-14T16:34:57;98433.66;;;8.12;47.28
78229;BME280;67502;49.142;9.124;2023-03-14T16:37:28;98450.13;;;8.25;46.71
78229;BME280;67502;49.142;9.124;2023-03-14T16:39:55;98443.44;;;8.21;46.99
78229;BME280;67502;49.142;9.124;2023-03-14T16:42:38;98451.34;;;8.21;46.73
78229;BME280;67502;49.142;9.124;2023-03-14T16:45:24;98461.63;;;8.24;47.84
78229;BME280;67502;49.142;9.124;2023-03-14T16:47:51;98480.75;;;8.26;48.11
78229;BME280;67502;49.142;9.124;2023-03-14T16:50:17;98478.63;;;8.20;48.46
78229;BME280;67502;49.142;9.124;2023-03-14T16:52:44;98478.50;;;8.10;48.52
78229;BME280;67502;49.142;9.124;2023-03-14T16:55:13;98490.97;;;8.19;48.18
78229;BME280;67502;49.142;9.124;2023-03-14T16:57:39;98486.25;;;8.23;46.86
78229;BME280;67502;49.142;9.124;2023-03-14T17:02:31;98504.44;;;8.48;49.34
78229;BME280;67502;49.142;9.124;2023-03-14T17:04:58;98521.44;;;8.44;47.18
78229;BME280;67502;49.142;9.124;2023-03-14T17:07:24;98519.28;;;8.27;46.83
78229;BME280;67502;49.142;9.124;2023-03-14T17:09:51;98506.03;;;8.17;47.57
78229;BME280;67502;49.142;9.124;2023-03-14T17:12:20;98507.13;;;8.04;48.19
78229;BME280;67502;49.142;9.124;2023-03-14T17:14:46;98511.44;;;8.05;47.40
78229;BME280;67502;49.142;9.124;2023-03-14T17:17:16;98524.34;;;7.96;49.40
78229;BME280;67502;49.142;9.124;2023-03-14T17:19:43;98534.97;;;8.06;47.95
78229;BME280;67502;49.142;9.124;2023-03-14T17:22:10;98538.47;;;7.95;48.04
78229;BME280;67502;49.142;9.124;2023-03-14T17:24:49;98541.09;;;7.84;48.70
78229;BME280;67502;49.142;9.124;2023-03-14T17:27:27;98558.53;;;7.85;49.51
78229;BME280;67502;49.142;9.124;2023-03-14T17:29:54;98549.69;;;7.75;49.28
78229;BME280;67502;49.142;9.124;2023-03-14T17:32:21;98572.91;;;7.70;48.98
78229;BME280;67502;49.142;9.124;2023-03-14T17:34:47;98577.31;;;7.69;50.80
78229;BME280;67502;49.142;9.124;2023-03-14T17:37:14;98578.13;;;7.59;51.17
78229;BME280;67502;49.142;9.124;2023-03-14T17:39:40;98586.16;;;7.57;51.48
78229;BME280;67502;49.142;9.124;2023-03-14T17:42:07;98576.69;;;7.55;51.12
78229;BME280;67502;49.142;9.124;2023-03-14T17:44:33;98582.69;;;7.57;51.84
78229;BME280;67502;49.142;9.124;2023-03-14T17:47:00;98588.75;;;7.46;51.90
78229;BME280;67502;49.142;9.124;2023-03-14T17:49:27;98582.88;;;7.42;51.51
78229;BME280;67502;49.142;9.124;2023-03-14T17:51:54;98597.13;;;7.51;52.11
78229;BME280;67502;49.142;9.124;2023-03-14T17:54:20;98591.59;;;7.43;51.49
78229;BME280;67502;49.142;9.124;2023-03-14T17:56:46;98597.69;;;7.43;51.15
78229;BME280;67502;49.142;9.124;2023-03-14T17:59:14;98585.09;;;7.24;51.56
78229;BME280;67502;49.142;9.124;2023-03-14T18:01:40;98586.69;;;7.38;52.49
78229;BME280;67502;49.142;9.124;2023-03-14T18:04:07;98614.06;;;7.36;52.87
78229;BME280;67502;49.142;9.124;2023-03-14T18:06:34;98607.81;;;7.26;53.16
78229;BME280;67502;49.142;9.124;2023-03-14T18:09:01;98609.88;;;7.33;52.81
78229;BME280;67502;49.142;9.124;2023-03-14T18:11:30;98625.59;;;7.22;53.82
78229;BME280;67502;49.142;9.124;2023-03-14T18:13:57;98626.53;;;7.21;54.77
78229;BME280;67502;49.142;9.124;2023-03-14T18:16:26;98646.00;;;7.18;54.37
78229;BME280;67502;49.142;9.124;2023-03-14T18:18:53;98650.88;;;7.12;55.12
78229;BME280;67502;49.142;9.124;2023-03-14T18:21:22;98645.22;;;7.05;55.54
78229;BME280;67502;49.142;9.124;2023-03-14T18:23:48;98647.34;;;7.00;56.10
78229;BME280;67502;49.142;9.124;2023-03-14T18:26:16;98665.13;;;6.96;57.09
78229;BME280;67502;49.142;9.124;2023-03-14T18:28:42;98668.72;;;6.95;56.76
78229;BME280;67502;49.142;9.124;2023-03-14T18:31:12;98685.78;;;6.77;57.64
78229;BME280;67502;49.142;9.124;2023-03-14T18:33:44;98686.81;;;6.87;58.74
78229;BME280;67502;49.142;9.124;2023-03-14T18:36:11;98698.50;;;6.70;58.85
78229;BME280;67502;49.142;9.124;2023-03-14T18:38:38;98695.56;;;6.75;59.47
78229;BME280;67502;49.142;9.124;2023-03-14T18:41:10;98708.38;;;6.67;59.40
78229;BME280;67502;49.142;9.124;2023-03-14T18:43:38;98712.00;;;6.53;60.93
78229;BME280;67502;49.142;9.124;2023-03-14T18:46:04;98717.13;;;6.55;61.28
78229;BME280;67502;49.142;9.124;2023-03-14T18:48:31;98721.56;;;6.41;61.28
78229;BME280;67502;49.142;9.124;2023-03-14T18:50:58;98725.47;;;6.36;62.08
78229;BME280;67502;49.142;9.124;2023-03-14T18:53:25;98727.66;;;6.29;62.74
78229;BME280;67502;49.142;9.124;2023-03-14T18:55:58;98730.28;;;6.29;62.72
78229;BME280;67502;49.142;9.124;2023-03-14T18:58:24;98716.13;;;6.19;62.78
78229;BME280;67502;49.142;9.124;2023-03-14T19:00:58;98734.56;;;6.30;62.86
78229;BME280;67502;49.142;9.124;2023-03-14T19:03:26;98752.63;;;6.22;63.67
78229;BME280;67502;49.142;9.124;2023-03-14T19:05:53;98757.88;;;6.22;64.40
78229;BME280;67502;49.142;9.124;2023-03-14T19:08:21;98754.00;;;6.28;64.18
78229;BME280;67502;49.142;9.124;2023-03-14T19:10:52;98751.16;;;6.18;64.04
78229;BME280;67502;49.142;9.124;2023-03-14T19:13:24;98757.78;;;6.11;65.14
78229;BME280;67502;49.142;9.124;2023-03-14T19:15:52;98754.28;;;6.10;65.12
78229;BME280;67502;49.142;9.124;2023-03-14T19:18:19;98756.00;;;6.11;64.99
78229;BME280;67502;49.142;9.124;2023-03-14T19:20:57;98765.03;;;6.20;65.18
78229;BME280;67502;49.142;9.124;2023-03-14T19:23:25;98776.66;;;6.16;64.78
78229;BME280;67502;49.142;9.124;2023-03-14T19:25:52;98778.22;;;6.18;64.68
78229;BME280;67502;49.142;9.124;2023-03-14T19:28:20;98796.50;;;6.20;64.67
78229;BME280;67502;49.142;9.124;2023-03-14T19:30:47;98799.31;;;6.17;64.89
78229;BME280;67502;49.142;9.124;2023-03-14T19:33:14;98807.63;;;6.11;65.23
78229;BME280;67502;49.142;9.124;2023-03-14T19:35:42;98797.66;;;6.16;65.11
78229;BME280;67502;49.142;9.124;2023-03-14T19:38:12;98816.03;;;6.16;65.52
78229;BME280;67502;49.142;9.124;2023-03-14T19:40:43;98819.19;;;6.21;64.37
78229;BME280;67502;49.142;9.124;2023-03-14T19:43:10;98807.19;;;6.17;64.20
78229;BME280;67502;49.142;9.124;2023-03-14T19:45:42;98833.25;;;6.20;63.74
78229;BME280;67502;49.142;9.124;2023-03-14T19:48:09;98826.94;;;6.22;64.60
78229;BME280;67502;49.142;9.124;2023-03-14T19:50:40;98820.00;;;6.09;65.15
78229;BME280;67502;49.142;9.124;2023-03-14T19:53:18;98854.25;;;5.93;67.13
78229;BME280;67502;49.142;9.124;2023-03-14T19:55:46;98878.91;;;5.76;68.51
78229;BME280;67502;49.142;9.124;2023-03-14T19:58:13;98884.91;;;5.37;70.74
78229;BME280;67502;49.142;9.124;2023-03-14T20:00:39;98891.75;;;5.25;71.59
78229;BME280;67502;49.142;9.124;2023-03-14T20:03:09;98886.88;;;5.05;73.31
78229;BME280;67502;49.142;9.124;2023-03-14T20:05:40;98874.91;;;4.86;73.65
78229;BME280;67502;49.142;9.124;2023-03-14T20:08:07;98859.56;;;4.66;74.36
78229;BME280;67502;49.142;9.124;2023-03-14T20:10:35;98876.22;;;4.79;72.98
78229;BME280;67502;49.142;9.124;2023-03-14T20:13:02;98856.34;;;4.46;74.00
78229;BME280;67502;49.142;9.124;2023-03-14T20:15:41;98877.81;;;4.37;74.73
78229;BME280;67502;49.142;9.124;2023-03-14T20:18:07;98876.00;;;4.23;75.95
78229;BME280;67502;49.142;9.124;2023-03-14T20:20:39;98890.88;;;4.23;75.67
78229;BME280;67502;49.142;9.124;2023-03-14T20:23:07;98850.34;;;3.84;76.37
78229;BME280;67502;49.142;9.124;2023-03-14T20:25:34;98894.34;;;4.08;76.35
78229;BME280;67502;49.142;9.124;2023-03-14T20:28:02;98889.50;;;4.02;75.67
78229;BME280;67502;49.142;9.124;2023-03-14T20:30:35;98888.47;;;3.88;75.86
78229;BME280;67502;49.142;9.124;2023-03-14T20:33:03;98905.59;;;4.10;75.71
78229;BME280;67502;49.142;9.124;2023-03-14T20:35:30;98899.28;;;3.98;76.35
78229;BME280;67502;49.142;9.124;2023-03-14T20:37:59;98899.94;;;4.02;75.74
78229;BME280;67502;49.142;9.124;2023-03-14T20:40:26;98899.69;;;3.90;76.14
78229;BME280;67502;49.142;9.124;2023-03-14T20:42:55;98896.22;;;4.06;76.37
78229;BME280;67502;49.142;9.124;2023-03-14T20:45:22;98887.91;;;4.13;75.76
78229;BME280;67502;49.142;9.124;2023-03-14T20:47:48;98897.50;;;3.98;76.44
78229;BME280;67502;49.142;9.124;2023-03-14T20:50:15;98909.53;;;4.01;76.90
78229;BME280;67502;49.142;9.124;2023-03-14T20:52:42;98910.47;;;3.84;77.95
78229;BME280;67502;49.142;9.124;2023-03-14T20:55:09;98904.75;;;3.93;76.10
78229;BME280;67502;49.142;9.124;2023-03-14T20:57:35;98908.03;;;3.97;76.71
78229;BME280;67502;49.142;9.124;2023-03-14T21:00:02;98915.13;;;4.11;75.70
78229;BME280;67502;49.142;9.124;2023-03-14T21:02:32;98920.56;;;4.22;76.36
78229;BME280;67502;49.142;9.124;2023-03-14T21:05:02;98936.16;;;4.39;75.21
78229;BME280;67502;49.142;9.124;2023-03-14T21:07:30;98945.97;;;4.50;74.94
78229;BME280;67502;49.142;9.124;2023-03-14T21:09:59;98932.16;;;4.48;75.60
78229;BME280;67502;49.142;9.124;2023-03-14T21:12:26;98950.22;;;4.53;74.99
78229;BME280;67502;49.142;9.124;2023-03-14T21:14:53;98947.19;;;4.44;76.03
78229;BME280;67502;49.142;9.124;2023-03-14T21:17:19;98948.53;;;4.52;75.41
78229;BME280;67502;49.142;9.124;2023-03-14T21:19:46;98938.22;;;4.48;75.94
78229;BME280;67502;49.142;9.124;2023-03-14T21:22:12;98929.00;;;4.57;74.87
78229;BME280;67502;49.142;9.124;2023-03-14T21:24:44;98942.81;;;4.59;74.90
78229;BME280;67502;49.142;9.124;2023-03-14T21:27:11;98938.81;;;4.68;74.75
78229;BME280;67502;49.142;9.124;2023-03-14T21:29:37;98945.44;;;4.59;75.71
78229;BME280;67502;49.142;9.124;2023-03-14T21:32:04;98948.00;;;4.61;75.46
78229;BME280;67502;49.142;9.124;2023-03-14T21:34:34;98948.06;;;4.59;76.23
78229;BME280;67502;49.142;9.124;2023-03-14T21:37:01;98934.69;;;4.64;75.98
78229;BME280;67502;49.142;9.124;2023-03-14T21:39:29;98944.66;;;4.73;75.79
78229;BME280;67502;49.142;9.124;2023-03-14T21:41:56;98954.19;;;4.74;76.01
78229;BME280;67502;49.142;9.124;2023-03-14T21:44:22;98945.06;;;4.81;75.58
78229;BME280;67502;49.142;9.124;2023-03-14T21:46:49;98964.50;;;4.77;76.13
78229;BME280;67502;49.142;9.124;2023-03-14T21:49:16;98964.84;;;4.71;76.53
78229;BME280;67502;49.142;9.124;2023-03-14T21:51:43;98969.22;;;4.70;75.45
78229;BME280;67502;49.142;9.124;2023-03-14T21:54:12;98974.19;;;4.75;75.50
78229;BME280;67502;49.142;9.124;2023-03-14T21:56:41;98987.66;;;4.69;76.26
78229;BME280;67502;49.142;9.124;2023-03-14T21:59:11;98997.75;;;4.75;75.98
78229;BME280;67502;49.142;9.124;2023-03-14T22:01:39;99007.66;;;4.70;76.61
78229;BME280;67502;49.142;9.124;2023-03-14T22:04:07;99015.63;;;4.53;75.85
78229;BME280;67502;49.142;9.124;2023-03-14T22:06:34;99009.31;;;4.41;76.34
78229;BME280;67502;49.142;9.124;2023-03-14T22:09:00;99033.13;;;4.36;76.06
78229;BME280;67502;49.142;9.124;2023-03-14T22:11:27;99028.16;;;4.16;74.39
78229;BME280;67502;49.142;9.124;2023-03-14T22:13:53;99047.63;;;3.94;72.67
78229;BME280;67502;49.142;9.124;2023-03-14T22:16:20;99050.56;;;3.88;74.98
78229;BME280;67502;49.142;9.124;2023-03-14T22:18:46;99056.28;;;3.79;74.84
78229;BME280;67502;49.142;9.124;2023-03-14T22:21:13;99059.41;;;3.70;73.91
78229;BME280;67502;49.142;9.124;2023-03-14T22:23:39;99084.19;;;3.79;74.76
78229;BME280;67502;49.142;9.124;2023-03-14T22:26:06;99069.28;;;3.47;76.02
78229;BME280;67502;49.142;9.124;2023-03-14T22:28:33;99081.66;;;3.44;76.45
78229;BME280;67502;49.142;9.124;2023-03-14T22:31:00;99103.09;;;3.33;78.01
78229;BME280;67502;49.142;9.124;2023-03-14T22:33:29;99085.28;;;3.24;78.04
78229;BME280;67502;49.142;9.124;2023-03-14T22:35:56;99095.72;;;3.24;78.37